Time;durP1;ratioP1;P1;durP2;ratioP2;P2;SDS_P1;SDS_P2;PMS_P1;PMS_P2;Temp;Humidity;BMP_temperature;BMP_pressure;BME280_temperature;BME280_humidity;BME280_pressure;Samples;Min_cycle;Max_cycle;Signal;HPM_P1;HPM_P2
2023/08/11 00:02:16;;;;;;;10.02;7.90;;;15.20;99.90;;;;;;5070181;28;20078;-54
2023/08/11 00:04:42;;;;;;;8.73;8.02;;;15.20;99.90;;;;;;5070384;28;20074;-52
2023/08/11 00:07:09;;;;;;;10.95;8.05;;;15.20;99.90;;;;;;5068738;28;20490;-54
2023/08/11 00:09:34;;;;;;;;;;;15.20;99.90;;;;;;5070922;28;20047;-52
2023/08/11 00:12:00;;;;;;;10.40;9.30;;;15.20;99.90;;;;;;5070037;28;19991;-53
2023/08/11 00:14:26;;;;;;;11.98;9.40;;;15.20;99.90;;;;;;5070127;28;20508;-54
2023/08/11 00:16:52;;;;;;;9.73;8.73;;;15.30;99.90;;;;;;5070031;28;20067;-52
2023/08/11 00:19:18;;;;;;;10.32;7.68;;;15.30;99.90;;;;;;5070120;28;20486;-52
2023/08/11 00:21:43;;;;;;;11.38;8.88;;;15.20;99.90;;;;;;5069169;28;20068;-52
2023/08/11 00:24:09;;;;;;;9.55;8.50;;;15.20;99.90;;;;;;5070544;28;20028;-52
2023/08/11 00:26:35;;;;;;;10.18;9.18;;;15.10;99.90;;;;;;5069259;28;20127;-51
2023/08/11 00:29:00;;;;;;;15.45;10.02;;;15.10;99.90;;;;;;5070122;28;20043;-56
2023/08/11 00:31:27;;;;;;;9.57;8.68;;;15.10;99.90;;;;;;5070196;28;20459;-55
2023/08/11 00:33:52;;;;;;;;;;;15.10;99.90;;;;;;5070868;28;20117;-54
2023/08/11 00:36:18;;;;;;;8.40;7.43;;;15.10;99.90;;;;;;5070120;28;19982;-52
2023/08/11 00:38:43;;;;;;;8.27;7.55;;;15.00;99.90;;;;;;5069999;28;20032;-52
2023/08/11 00:41:10;;;;;;;9.75;8.68;;;15.00;99.90;;;;;;5069946;28;20513;-52
2023/08/11 00:43:36;;;;;;;12.25;7.97;;;15.00;99.90;;;;;;5070038;28;20049;-52
2023/08/11 00:46:10;;;;;;;8.60;7.85;;;15.00;99.90;;;;;;5070377;28;20039;-54
2023/08/11 00:48:40;;;;;;;8.27;7.47;;;14.90;99.90;;;;;;5069815;28;20037;-52
2023/08/11 00:51:06;;;;;;;6.43;5.82;;;14.90;99.90;;;;;;5070111;28;20417;-52
2023/08/11 00:53:36;;;;;;;4.72;4.38;;;14.90;99.90;;;;;;5069550;28;20496;-53
2023/08/11 00:56:02;;;;;;;4.93;4.60;;;14.90;99.90;;;;;;5069889;28;20047;-53
2023/08/11 00:58:28;;;;;;;;;;;14.80;99.90;;;;;;5068950;28;20049;-52
2023/08/11 01:00:54;;;;;;;5.38;4.80;;;14.80;99.90;;;;;;5070101;28;20011;-52
2023/08/11 01:03:20;;;;;;;4.85;4.30;;;14.80;99.90;;;;;;5069990;28;20525;-53
2023/08/11 01:06:09;;;;;;;4.45;4.15;;;14.70;99.90;;;;;;5069958;28;20046;-52
2023/08/11 01:08:49;;;;;;;6.00;5.60;;;14.60;99.90;;;;;;5073412;28;20040;-54
2023/08/11 01:11:44;;;;;;;6.40;4.90;;;14.70;99.90;;;;;;5073889;28;20052;-54
2023/08/11 01:14:28;;;;;;;7.45;6.55;;;14.60;99.90;;;;;;5073671;28;20408;-52
2023/08/11 01:16:58;;;;;;;10.40;7.88;;;14.60;99.90;;;;;;5073362;28;20048;-52
2023/08/11 01:19:35;;;;;;;7.97;7.38;;;14.60;99.90;;;;;;5073078;28;20101;-52
2023/08/11 01:22:07;;;;;;;8.27;7.47;;;14.60;99.90;;;;;;5062753;28;20037;-52
2023/08/11 01:24:32;;;;;;;8.38;7.57;;;14.70;99.90;;;;;;5069876;28;20047;-54
2023/08/11 01:26:58;;;;;;;5.72;5.25;;;14.60;99.90;;;;;;5073148;28;20119;-54
2023/08/11 01:29:25;;;;;;;5.40;5.00;;;14.60;99.90;;;;;;5072735;28;20040;-53
2023/08/11 01:31:51;;;;;;;5.45;5.05;;;14.50;99.90;;;;;;5073043;28;20036;-52
2023/08/11 01:34:17;;;;;;;13.98;6.65;;;14.50;99.90;;;;;;5072939;28;20032;-52
2023/08/11 01:36:43;;;;;;;7.15;6.60;;;14.40;99.90;;;;;;5073638;28;20040;-51
2023/08/11 01:39:13;;;;;;;7.55;6.82;;;14.50;99.90;;;;;;5073151;28;20040;-52
2023/08/11 01:41:39;;;;;;;9.23;8.43;;;14.40;99.90;;;;;;5073582;28;20029;-52
2023/08/11 01:44:08;;;;;;;10.80;9.88;;;14.50;99.90;;;;;;5073505;28;20032;-54
2023/08/11 01:46:34;;;;;;;10.82;9.80;;;14.40;99.90;;;;;;5073385;28;20047;-53
2023/08/11 01:49:01;;;;;;;12.20;11.05;;;14.50;99.90;;;;;;5072842;28;20029;-54
2023/08/11 01:51:27;;;;;;;12.85;11.43;;;14.50;99.90;;;;;;5072855;28;20041;-52
2023/08/11 01:53:53;;;;;;;;;;;14.60;99.90;;;;;;5073285;28;20036;-52
2023/08/11 01:56:20;;;;;;;11.43;10.00;;;14.60;99.90;;;;;;5072727;28;20391;-53
2023/08/11 01:58:46;;;;;;;12.13;10.23;;;14.60;99.90;;;;;;5072484;28;20032;-52
2023/08/11 02:01:13;;;;;;;;;;;14.50;99.90;;;;;;5073847;28;20037;-53
2023/08/11 02:03:39;;;;;;;13.48;9.57;;;14.40;99.90;;;;;;5072963;28;19923;-53
2023/08/11 02:06:05;;;;;;;9.10;8.32;;;14.50;99.90;;;;;;5073367;28;20040;-52
2023/08/11 02:08:31;;;;;;;9.38;8.27;;;14.40;99.90;;;;;;5072052;28;20029;-55
2023/08/11 02:10:57;;;;;;;12.95;10.93;;;14.30;99.90;;;;;;5073181;28;20048;-52
2023/08/11 02:13:23;;;;;;;11.18;10.15;;;14.30;99.90;;;;;;5072599;28;20553;-52
2023/08/11 02:15:49;;;;;;;13.25;11.88;;;14.20;99.90;;;;;;5072832;28;20088;-52
2023/08/11 02:18:14;;;;;;;11.80;10.80;;;14.20;99.90;;;;;;5070570;28;20089;-55
2023/08/11 02:20:41;;;;;;;15.10;12.88;;;14.20;99.90;;;;;;5071791;28;20382;-54
2023/08/11 02:23:07;;;;;;;14.43;13.07;;;14.20;99.90;;;;;;5071785;28;20555;-52
2023/08/11 02:25:33;;;;;;;15.07;13.57;;;14.20;99.90;;;;;;5072137;28;20081;-51
2023/08/11 02:27:59;;;;;;;16.08;14.48;;;14.30;99.90;;;;;;5062019;28;20079;-52
2023/08/11 02:30:29;;;;;;;14.60;12.38;;;14.40;99.90;;;;;;5070953;28;20075;-55
2023/08/11 02:32:55;;;;;;;18.45;14.40;;;14.40;99.90;;;;;;5072329;28;20044;-52
2023/08/11 02:35:21;;;;;;;18.15;14.35;;;14.40;99.90;;;;;;5072447;28;20557;-54
2023/08/11 02:37:47;;;;;;;;;;;14.40;99.90;;;;;;5072008;28;20040;-52
2023/08/11 02:40:12;;;;;;;17.02;15.43;;;14.40;99.90;;;;;;5072278;28;19931;-53
2023/08/11 02:42:42;;;;;;;16.35;12.60;;;14.40;99.90;;;;;;5072495;28;20033;-52
2023/08/11 02:45:11;;;;;;;14.05;12.57;;;14.40;99.90;;;;;;5071946;28;20058;-53
2023/08/11 02:47:38;;;;;;;14.50;12.20;;;14.30;99.90;;;;;;5072357;28;20045;-52
2023/08/11 02:50:05;;;;;;;13.88;11.95;;;14.30;99.90;;;;;;5071806;28;20097;-54
2023/08/11 02:52:30;;;;;;;12.68;11.52;;;14.30;99.90;;;;;;5070491;28;20056;-52
2023/08/11 02:54:56;;;;;;;13.00;11.80;;;14.30;99.90;;;;;;5071802;28;20032;-53
2023/08/11 02:57:21;;;;;;;12.70;11.48;;;14.30;99.90;;;;;;5072048;28;20037;-52
2023/08/11 02:59:49;;;;;;;13.18;11.88;;;14.20;99.90;;;;;;5071617;28;20036;-53
2023/08/11 03:02:16;;;;;;;18.88;15.73;;;14.20;99.90;;;;;;5071961;28;20041;-53
2023/08/11 03:04:42;;;;;;;16.85;15.15;;;14.20;99.90;;;;;;5071705;28;20054;-52
2023/08/11 03:07:09;;;;;;;18.85;15.48;;;14.20;99.90;;;;;;5071545;28;20131;-52
2023/08/11 03:09:35;;;;;;;21.60;14.82;;;14.20;99.90;;;;;;5071546;28;20040;-53
2023/08/11 03:12:01;;;;;;;15.65;13.35;;;14.30;99.90;;;;;;5071952;28;20032;-53
2023/08/11 03:14:26;;;;;;;14.45;13.05;;;14.30;99.90;;;;;;5071564;28;20119;-52
2023/08/11 03:16:53;;;;;;;10.10;9.10;;;14.40;99.90;;;;;;5071631;28;20109;-52
2023/08/11 03:19:19;;;;;;;11.48;10.38;;;14.30;99.90;;;;;;5070733;28;20481;-53
2023/08/11 03:21:44;;;;;;;11.43;9.52;;;14.20;99.90;;;;;;5071916;28;20047;-54
2023/08/11 03:24:10;;;;;;;12.13;11.10;;;14.20;99.90;;;;;;5071739;28;20033;-52
2023/08/11 03:26:36;;;;;;;13.65;10.40;;;14.20;99.90;;;;;;5071656;28;20131;-54
2023/08/11 03:29:02;;;;;;;14.63;12.68;;;14.10;99.90;;;;;;5070025;28;20037;-54
2023/08/11 03:31:28;;;;;;;15.45;13.90;;;14.20;99.90;;;;;;5070315;28;20044;-54
2023/08/11 03:33:54;;;;;;;16.00;14.00;;;14.20;99.90;;;;;;5070827;28;20028;-56
2023/08/11 03:36:20;;;;;;;14.55;12.68;;;14.20;99.90;;;;;;5070753;28;20051;-52
2023/08/11 03:38:46;;;;;;;14.65;12.43;;;14.20;99.90;;;;;;5070355;28;20029;-53
2023/08/11 03:41:12;;;;;;;14.05;12.55;;;14.20;99.90;;;;;;5070905;28;20079;-54
2023/08/11 03:43:37;;;;;;;16.10;12.95;;;14.20;99.90;;;;;;5071137;28;20044;-55
2023/08/11 03:46:03;;;;;;;14.55;12.52;;;14.30;99.90;;;;;;5071100;28;20040;-52
2023/08/11 03:48:29;;;;;;;14.88;13.38;;;14.30;99.90;;;;;;5068994;28;20044;-52
2023/08/11 03:50:59;;;;;;;16.08;12.05;;;14.30;99.90;;;;;;5070591;28;20039;-54
2023/08/11 03:53:25;;;;;;;16.55;12.48;;;14.40;99.90;;;;;;5071138;28;20086;-53
2023/08/11 03:55:51;;;;;;;15.85;12.65;;;14.40;99.90;;;;;;5070758;28;20029;-52
2023/08/11 03:58:16;;;;;;;18.35;12.98;;;14.40;99.90;;;;;;5070779;28;20043;-53
2023/08/11 04:00:42;;;;;;;19.95;12.60;;;14.40;99.90;;;;;;5070539;28;20448;-53
2023/08/11 04:03:09;;;;;;;13.68;11.05;;;14.50;99.90;;;;;;5070444;28;20037;-55
2023/08/11 04:05:35;;;;;;;15.70;11.80;;;14.40;99.90;;;;;;5069171;28;20052;-52
2023/08/11 04:08:01;;;;;;;12.65;11.35;;;14.40;99.90;;;;;;5070626;28;20048;-53
2023/08/11 04:10:27;;;;;;;15.05;10.52;;;14.40;99.90;;;;;;5070376;28;20032;-52
2023/08/11 04:12:53;;;;;;;13.55;11.15;;;14.40;99.90;;;;;;5071120;28;20569;-52
2023/08/11 04:15:18;;;;;;;16.70;10.40;;;14.40;99.90;;;;;;5070452;28;20040;-54
2023/08/11 04:17:44;;;;;;;18.27;12.05;;;14.40;99.90;;;;;;5069792;28;20094;-52
2023/08/11 04:20:13;;;;;;;14.45;10.10;;;14.40;99.90;;;;;;5070439;28;20044;-52
2023/08/11 04:22:41;;;;;;;13.85;9.77;;;14.40;99.90;;;;;;5070241;28;20401;-53
2023/08/11 04:25:09;;;;;;;12.63;9.95;;;14.40;99.90;;;;;;5070202;28;20047;-52
2023/08/11 04:27:35;;;;;;;10.80;9.75;;;14.40;99.90;;;;;;5070201;28;20040;-52
2023/08/11 04:30:02;;;;;;;12.40;9.95;;;14.40;99.90;;;;;;5070184;28;20405;-54
2023/08/11 04:32:28;;;;;;;11.85;9.82;;;14.40;99.90;;;;;;5069177;28;20573;-52
2023/08/11 04:34:53;;;;;;;18.00;10.88;;;14.40;99.90;;;;;;5070415;28;20044;-52
2023/08/11 04:37:19;;;;;;;12.65;10.35;;;14.40;99.90;;;;;;5070109;28;20052;-53
2023/08/11 04:39:45;;;;;;;13.63;10.65;;;14.40;99.90;;;;;;5070215;28;20398;-52
2023/08/11 04:42:11;;;;;;;12.85;9.70;;;14.50;99.90;;;;;;5069158;28;20029;-52
2023/08/11 04:44:36;;;;;;;;;;;14.50;99.90;;;;;;5071014;28;20392;-53
2023/08/11 04:47:02;;;;;;;14.90;10.30;;;14.50;99.90;;;;;;5069377;28;19943;-53
2023/08/11 04:49:28;;;;;;;11.60;10.35;;;14.50;99.90;;;;;;5070060;28;20127;-52
2023/08/11 04:51:54;;;;;;;12.05;10.05;;;14.50;99.90;;;;;;5069765;28;20040;-52
2023/08/11 04:54:19;;;;;;;19.15;10.73;;;14.40;99.90;;;;;;5070265;28;20040;-52
2023/08/11 04:56:46;;;;;;;11.63;10.05;;;14.40;99.90;;;;;;5070041;28;20486;-52
2023/08/11 04:59:12;;;;;;;12.95;10.07;;;14.40;99.90;;;;;;5070100;28;20115;-53
2023/08/11 05:01:37;;;;;;;11.77;10.65;;;14.50;99.90;;;;;;5069399;28;20573;-52
2023/08/11 05:04:04;;;;;;;12.30;10.13;;;14.50;99.90;;;;;;5069832;28;20397;-55
2023/08/11 05:06:31;;;;;;;13.63;11.48;;;14.50;99.90;;;;;;5069949;28;20036;-52
2023/08/11 05:08:56;;;;;;;12.73;10.77;;;14.50;99.90;;;;;;5070032;28;20406;-52
2023/08/11 05:11:22;;;;;;;12.70;10.55;;;14.50;99.90;;;;;;5069779;28;20036;-53
2023/08/11 05:13:47;;;;;;;13.35;10.60;;;14.60;99.90;;;;;;5069724;28;20051;-54
2023/08/11 05:16:13;;;;;;;12.82;10.63;;;14.60;99.90;;;;;;5068941;28;20032;-54
2023/08/11 05:18:39;;;;;;;12.38;10.98;;;14.60;99.90;;;;;;5069744;28;20390;-53
2023/08/11 05:21:05;;;;;;;13.40;11.50;;;14.70;99.90;;;;;;5069828;28;20032;-52
2023/08/11 05:23:32;;;;;;;13.25;12.05;;;14.80;99.90;;;;;;5069778;28;20081;-54
2023/08/11 05:25:57;;;;;;;13.90;11.30;;;14.80;99.90;;;;;;5069737;28;20534;-52
2023/08/11 05:28:23;;;;;;;13.77;11.80;;;14.90;99.90;;;;;;5069078;28;20131;-52
2023/08/11 05:30:48;;;;;;;17.67;12.55;;;15.00;99.90;;;;;;5069452;28;20071;-52
2023/08/11 05:33:14;;;;;;;14.30;12.90;;;15.10;99.90;;;;;;5069419;28;20174;-53
2023/08/11 05:35:40;;;;;;;12.38;11.15;;;15.20;99.90;;;;;;5069778;28;20120;-52
2023/08/11 05:38:05;;;;;;;15.90;11.52;;;15.30;99.90;;;;;;5069041;28;20029;-55
2023/08/11 05:40:31;;;;;;;15.43;10.73;;;15.40;99.90;;;;;;5069345;28;20494;-52
2023/08/11 05:42:57;;;;;;;12.70;10.75;;;15.40;99.90;;;;;;5069147;28;20036;-53
2023/08/11 05:45:23;;;;;;;14.23;11.60;;;15.50;99.90;;;;;;5064435;28;20041;-55
2023/08/11 05:47:48;;;;;;;15.20;11.30;;;15.60;99.90;;;;;;5067092;28;20522;-52
2023/08/11 05:50:14;;;;;;;12.52;10.02;;;15.70;99.90;;;;;;5069249;28;20024;-53
2023/08/11 05:52:40;;;;;;;12.32;10.68;;;15.80;99.90;;;;;;5068976;28;20044;-52
2023/08/11 05:55:06;;;;;;;15.75;10.73;;;15.90;99.90;;;;;;5072606;28;20090;-54
2023/08/11 05:57:31;;;;;;;11.65;9.70;;;15.90;99.90;;;;;;5072322;28;20082;-56
2023/08/11 05:59:57;;;;;;;15.00;10.52;;;16.00;99.90;;;;;;5067422;28;20460;-53
2023/08/11 06:02:23;;;;;;;12.15;10.82;;;16.10;99.90;;;;;;5059816;28;20036;-52
2023/08/11 06:04:50;;;;;;;11.55;9.50;;;16.20;99.90;;;;;;5073408;28;20040;-54
2023/08/11 06:07:15;;;;;;;12.00;10.90;;;16.30;99.90;;;;;;5072596;28;20461;-52
2023/08/11 06:09:41;;;;;;;11.40;10.20;;;16.40;99.90;;;;;;5073112;28;20072;-52
2023/08/11 06:12:06;;;;;;;12.05;9.65;;;16.50;99.90;;;;;;5070850;28;20103;-53
2023/08/11 06:14:32;;;;;;;12.90;10.15;;;16.60;99.90;;;;;;5069907;28;20481;-52
2023/08/11 06:16:58;;;;;;;21.52;10.73;;;16.70;99.90;;;;;;5072023;28;20048;-52
2023/08/11 06:19:25;;;;;;;16.25;10.30;;;16.80;99.90;;;;;;5072711;28;20170;-52
2023/08/11 06:21:50;;;;;;;11.57;8.35;;;16.90;99.90;;;;;;5072722;28;20055;-52
2023/08/11 06:24:16;;;;;;;14.18;9.65;;;17.00;99.90;;;;;;5067815;28;20033;-53
2023/08/11 06:26:43;;;;;;;13.38;8.80;;;17.10;99.90;;;;;;5065965;28;20409;-52
2023/08/11 06:29:08;;;;;;;15.77;10.23;;;17.20;99.90;;;;;;5063977;28;20079;-54
2023/08/11 06:31:34;;;;;;;11.68;7.57;;;17.30;99.90;;;;;;5072447;28;20072;-52
2023/08/11 06:34:01;;;;;;;12.05;8.00;;;17.40;99.90;;;;;;5067646;28;20043;-51
2023/08/11 06:36:26;;;;;;;8.82;7.93;;;17.50;99.90;;;;;;5064734;28;20060;-56
2023/08/11 06:38:52;;;;;;;11.45;7.63;;;17.70;99.90;;;;;;5057206;28;20039;-52
2023/08/11 06:41:18;;;;;;;10.05;8.98;;;17.70;99.90;;;;;;5070632;28;20047;-52
2023/08/11 06:43:43;;;;;;;11.98;9.20;;;17.90;99.90;;;;;;5071040;28;20089;-52
2023/08/11 06:46:09;;;;;;;9.43;8.18;;;18.00;99.90;;;;;;5060175;28;20059;-52
2023/08/11 06:48:34;;;;;;;13.57;8.43;;;18.10;99.90;;;;;;5064101;28;20029;-54
2023/08/11 06:51:00;;;;;;;10.90;7.78;;;18.20;99.90;;;;;;5067763;28;20076;-52
2023/08/11 06:53:26;;;;;;;8.57;7.80;;;18.20;99.90;;;;;;5067179;28;20032;-55
2023/08/11 06:55:52;;;;;;;10.18;8.25;;;18.40;99.90;;;;;;5069934;28;20449;-51
2023/08/11 06:58:17;;;;;;;8.00;7.00;;;18.50;99.90;;;;;;5068442;28;20044;-52
2023/08/11 07:00:43;;;;;;;15.90;9.70;;;18.60;99.90;;;;;;5069932;28;20109;-52
2023/08/11 07:03:09;;;;;;;10.05;6.88;;;18.70;99.90;;;;;;5069355;28;20401;-54
2023/08/11 07:05:34;;;;;;;8.90;7.30;;;18.80;99.90;;;;;;5070129;28;20033;-53
2023/08/11 07:08:00;;;;;;;7.70;5.93;;;18.80;99.90;;;;;;5070575;28;20115;-52
2023/08/11 07:10:26;;;;;;;;;;;18.90;99.90;;;;;;5070775;28;20098;-51
2023/08/11 07:12:52;;;;;;;14.05;6.40;;;19.00;99.90;;;;;;5067841;28;19921;-52
2023/08/11 07:15:17;;;;;;;7.40;6.03;;;19.10;99.90;;;;;;5070816;28;20037;-53
2023/08/11 07:17:43;;;;;;;8.38;5.53;;;19.20;99.90;;;;;;5068173;28;20040;-52
2023/08/11 07:20:09;;;;;;;5.75;4.88;;;19.30;99.90;;;;;;5066761;28;20040;-54
2023/08/11 07:22:35;;;;;;;6.07;5.35;;;19.40;99.90;;;;;;5068451;28;20672;-53
2023/08/11 07:25:00;;;;;;;8.45;5.53;;;19.50;99.90;;;;;;5068703;28;20031;-52
2023/08/11 07:27:26;;;;;;;8.73;4.53;;;19.60;99.90;;;;;;5070248;28;20045;-53
2023/08/11 07:29:52;;;;;;;;;;;19.80;99.90;;;;;;5068388;28;20119;-51
2023/08/11 07:32:17;;;;;;;11.82;3.88;;;19.90;99.90;;;;;;5071418;28;19920;-52
2023/08/11 07:34:43;;;;;;;;;;;19.90;99.90;;;;;;5068902;28;20036;-53
2023/08/11 07:37:08;;;;;;;5.40;4.57;;;20.00;99.90;;;;;;5060633;28;19920;-52
2023/08/11 07:39:34;;;;;;;;;;;20.10;99.90;;;;;;5060002;28;20028;-52
2023/08/11 07:42:02;;;;;;;5.22;3.60;;;20.20;99.90;;;;;;5059957;28;20022;-54
2023/08/11 07:44:33;;;;;;;9.48;3.60;;;20.40;99.90;;;;;;5061988;28;20041;-52
2023/08/11 07:47:01;;;;;;;4.78;3.58;;;20.50;99.90;;;;;;5060683;28;20036;-52
2023/08/11 07:49:27;;;;;;;4.57;3.10;;;20.50;99.90;;;;;;5062075;28;20044;-53
2023/08/11 07:51:52;;;;;;;4.20;3.42;;;20.60;99.90;;;;;;5066645;28;20043;-55
2023/08/11 07:54:18;;;;;;;;;;;20.70;99.90;;;;;;5067939;28;20063;-55
2023/08/11 07:56:44;;;;;;;5.82;3.42;;;20.70;99.90;;;;;;5070667;28;19924;-55
2023/08/11 07:59:11;;;;;;;8.18;3.25;;;20.80;99.90;;;;;;5068328;28;20041;-56
2023/08/11 08:01:36;;;;;;;6.25;2.80;;;20.90;99.90;;;;;;5063657;28;20033;-51
2023/08/11 08:04:03;;;;;;;4.13;2.75;;;20.90;99.90;;;;;;5059205;28;20086;-56
2023/08/11 08:06:30;;;;;;;3.65;2.75;;;21.00;99.90;;;;;;5070455;28;20068;-53
2023/08/11 08:08:56;;;;;;;3.72;3.22;;;21.10;99.90;;;;;;5060015;28;20040;-52
2023/08/11 08:11:21;;;;;;;;;;;21.20;99.90;;;;;;5068919;28;20094;-54
2023/08/11 08:13:47;;;;;;;5.68;2.90;;;21.20;99.90;;;;;;5063591;28;19921;-53
2023/08/11 08:16:12;;;;;;;;;;;21.30;99.90;;;;;;5057868;28;20029;-55
2023/08/11 08:18:38;;;;;;;8.60;2.83;;;21.40;99.90;;;;;;5061095;28;19916;-52
2023/08/11 08:21:04;;;;;;;;;;;21.50;99.90;;;;;;5067818;28;20036;-56
2023/08/11 08:23:29;;;;;;;4.50;1.92;;;21.60;99.90;;;;;;5054936;28;19931;-52
2023/08/11 08:25:55;;;;;;;;;;;21.70;99.90;;;;;;5068686;28;20050;-50
2023/08/11 08:28:20;;;;;;;5.13;2.22;;;21.80;99.90;;;;;;5060360;28;19920;-51
2023/08/11 08:30:46;;;;;;;;;;;21.90;99.90;;;;;;5060422;28;20032;-50
2023/08/11 08:33:11;;;;;;;5.10;2.45;;;22.00;99.90;;;;;;5058950;28;20484;-51
2023/08/11 08:35:37;;;;;;;;;;;22.10;99.90;;;;;;5062165;28;20063;-51
2023/08/11 08:38:03;;;;;;;4.18;2.13;;;22.10;99.90;;;;;;5071290;28;19932;-51
2023/08/11 08:40:28;;;;;;;;;;;22.20;99.90;;;;;;5070067;28;20032;-51
2023/08/11 08:42:54;;;;;;;2.97;1.92;;;22.30;99.90;;;;;;5075434;28;20298;-52
2023/08/11 08:45:21;;;;;;;;;;;22.50;99.90;;;;;;5068074;28;20055;-50
2023/08/11 08:47:49;;;;;;;4.30;1.55;;;22.60;99.90;;;;;;5070903;28;20396;-52
2023/08/11 08:50:16;;;;;;;3.38;1.70;;;22.60;99.90;;;;;;5069648;28;20075;-56
2023/08/11 08:52:42;;;;;;;4.25;1.83;;;22.70;99.90;;;;;;5069313;28;20111;-54
2023/08/11 08:55:09;;;;;;;2.05;1.63;;;22.80;99.90;;;;;;5066749;28;20040;-51
2023/08/11 08:57:35;;;;;;;8.48;1.50;;;22.90;99.90;;;;;;5066236;28;20036;-54
2023/08/11 09:00:00;;;;;;;;;;;23.00;99.90;;;;;;5067409;28;20059;-51
2023/08/11 09:02:27;;;;;;;4.30;2.35;;;23.10;99.90;;;;;;5064516;28;19932;-52
2023/08/11 09:04:53;;;;;;;2.22;1.30;;;23.20;99.90;;;;;;5067458;28;20043;-53
2023/08/11 09:07:19;;;;;;;4.60;1.80;;;23.20;99.90;;;;;;5073914;28;20113;-54
2023/08/11 09:09:46;;;;;;;6.13;1.20;;;23.20;99.90;;;;;;5066694;28;20177;-52
2023/08/11 09:12:12;;;;;;;9.30;1.60;;;23.30;99.90;;;;;;5066514;28;20036;-54
2023/08/11 09:14:40;;;;;;;;;;;23.40;99.90;;;;;;5070470;28;20413;-52
2023/08/11 09:17:06;;;;;;;3.72;1.27;;;23.50;99.90;;;;;;5072083;28;19920;-53
2023/08/11 09:19:31;;;;;;;;;;;23.60;99.90;;;;;;5076262;28;21368;-52
2023/08/11 09:21:57;;;;;;;4.00;1.83;;;23.60;99.90;;;;;;5073068;28;20233;-55
2023/08/11 09:24:23;;;;;;;2.80;1.25;;;23.70;99.90;;;;;;5068341;28;20039;-52
2023/08/11 09:26:49;;;;;;;;;;;23.70;99.90;;;;;;5079214;28;20036;-53
2023/08/11 09:29:18;;;;;;;4.63;1.77;;;23.70;99.90;;;;;;5072012;28;20293;-54
2023/08/11 09:31:49;;;;;;;6.72;1.63;;;23.80;99.90;;;;;;5073588;28;20165;-52
2023/08/11 09:34:18;;;;;;;3.15;1.85;;;23.80;99.90;;;;;;5076551;28;20529;-54
2023/08/11 09:36:45;;;;;;;5.22;1.48;;;23.90;99.90;;;;;;5077564;28;20051;-54
2023/08/11 09:39:11;;;;;;;4.38;1.70;;;24.00;99.90;;;;;;5072743;28;20043;-56
2023/08/11 09:41:48;;;;;;;3.00;1.65;;;24.10;99.90;;;;;;5077686;28;20039;-55
2023/08/11 09:44:17;;;;;;;;;;;24.20;99.90;;;;;;5076724;28;20043;-54
2023/08/11 09:46:43;;;;;;;3.17;1.38;;;24.30;99.90;;;;;;5079061;28;19938;-52
2023/08/11 09:49:10;;;;;;;3.58;2.20;;;24.40;99.90;;;;;;5075568;28;20522;-54
2023/08/11 09:51:36;;;;;;;6.30;1.83;;;24.40;99.90;;;;;;5075131;28;20548;-53
2023/08/11 09:54:06;;;;;;;6.80;1.50;;;24.40;99.90;;;;;;5078334;28;20431;-54
2023/08/11 09:56:37;;;;;;;3.28;1.83;;;24.50;99.90;;;;;;5076753;28;20039;-52
2023/08/11 09:59:04;;;;;;;3.50;1.92;;;24.60;99.90;;;;;;5073060;28;20163;-55
2023/08/11 10:01:34;;;;;;;4.97;1.88;;;24.60;99.90;;;;;;5065707;28;20082;-53
2023/08/11 10:04:02;;;;;;;4.18;1.90;;;24.60;99.90;;;;;;5076986;28;20492;-53
2023/08/11 10:06:31;;;;;;;3.63;1.58;;;24.70;99.90;;;;;;5066429;28;20496;-52
2023/08/11 10:09:01;;;;;;;8.18;2.50;;;24.80;99.90;;;;;;5069023;28;20044;-54
2023/08/11 10:11:30;;;;;;;4.95;2.08;;;24.90;99.90;;;;;;5075248;28;20113;-52
2023/08/11 10:13:56;;;;;;;6.00;2.00;;;24.90;99.90;;;;;;5080048;28;20040;-52
2023/08/11 10:16:24;;;;;;;9.25;1.77;;;24.90;99.90;;;;;;5082069;28;20097;-56
2023/08/11 10:18:50;;;;;;;4.72;1.75;;;24.90;99.90;;;;;;5073400;28;20041;-56
2023/08/11 10:21:17;;;;;;;4.07;1.73;;;24.90;99.90;;;;;;5076228;28;20485;-54
2023/08/11 10:23:44;;;;;;;4.10;1.77;;;25.00;99.90;;;;;;5072310;28;20038;-53
2023/08/11 10:26:10;;;;;;;1.70;1.30;;;25.10;99.90;;;;;;5072770;28;20090;-55
2023/08/11 10:28:36;;;;;;;2.70;1.33;;;25.20;99.90;;;;;;5071377;28;20040;-53
2023/08/11 10:31:04;;;;;;;4.35;1.30;;;25.20;99.90;;;;;;5072430;28;20547;-52
2023/08/11 10:33:31;;;;;;;3.67;1.23;;;25.30;99.90;;;;;;5071986;28;20378;-52
2023/08/11 10:35:59;;;;;;;3.30;1.60;;;25.40;99.90;;;;;;5071418;28;20704;-52
2023/08/11 10:38:32;;;;;;;5.63;1.35;;;25.50;99.90;;;;;;5069357;28;20041;-56
2023/08/11 10:41:07;;;;;;;5.53;1.88;;;25.60;99.90;;;;;;5072229;28;20032;-54
2023/08/11 10:43:35;;;;;;;4.40;1.80;;;25.70;99.90;;;;;;5074828;28;20046;-53
2023/08/11 10:46:24;;;;;;;3.15;1.48;;;25.80;99.90;;;;;;5074960;28;20032;-55
2023/08/11 10:48:51;;;;;;;3.80;1.65;;;25.80;99.90;;;;;;5072716;28;20036;-52
2023/08/11 10:51:31;;;;;;;4.00;1.70;;;25.90;99.90;;;;;;5070549;28;20044;-54
2023/08/11 10:54:06;;;;;;;1.20;0.98;;;26.10;99.90;;;;;;5069786;28;20044;-56
2023/08/11 10:56:37;;;;;;;5.07;1.33;;;26.10;99.90;;;;;;5073168;28;20040;-53
2023/08/11 10:59:08;;;;;;;6.25;1.52;;;26.00;99.00;;;;;;5071255;28;20093;-54
2023/08/11 11:01:39;;;;;;;5.18;1.23;;;25.90;98.50;;;;;;5073394;28;20489;-53
2023/08/11 11:04:06;;;;;;;4.88;1.20;;;25.90;99.10;;;;;;5072520;28;20416;-55
2023/08/11 11:06:33;;;;;;;7.13;1.30;;;26.00;99.10;;;;;;5072380;28;20391;-53
2023/08/11 11:08:59;;;;;;;4.05;1.25;;;26.10;99.00;;;;;;5073960;28;20048;-56
2023/08/11 11:11:24;;;;;;;2.63;1.02;;;26.10;98.70;;;;;;5071580;28;20036;-52
2023/08/11 11:13:51;;;;;;;4.32;1.23;;;26.10;98.50;;;;;;5070039;28;20393;-53
2023/08/11 11:16:19;;;;;;;3.97;1.13;;;26.10;98.50;;;;;;5071861;28;20436;-52
2023/08/11 11:18:47;;;;;;;2.53;1.67;;;26.10;99.00;;;;;;5069979;28;20047;-53
2023/08/11 11:21:13;;;;;;;5.18;0.90;;;26.10;98.20;;;;;;5069819;28;20124;-54
2023/08/11 11:23:44;;;;;;;4.63;1.25;;;26.20;98.80;;;;;;5062931;28;20040;-55
2023/08/11 11:26:10;;;;;;;1.85;1.42;;;26.30;98.90;;;;;;5063428;28;20075;-52
2023/08/11 11:28:35;;;;;;;1.77;1.10;;;26.30;99.80;;;;;;5066904;28;20102;-52
2023/08/11 11:31:01;;;;;;;4.30;1.50;;;26.40;98.80;;;;;;5067685;28;20036;-54
2023/08/11 11:33:30;;;;;;;2.58;1.20;;;26.40;98.20;;;;;;5067002;28;20552;-56
2023/08/11 11:35:56;;;;;;;5.18;1.10;;;26.50;98.30;;;;;;5069032;28;20547;-52
2023/08/11 11:38:22;;;;;;;4.22;1.10;;;26.50;97.60;;;;;;5068883;28;20053;-54
2023/08/11 11:40:49;;;;;;;2.85;0.80;;;26.50;97.50;;;;;;5068110;28;20028;-52
2023/08/11 11:43:14;;;;;;;5.70;1.45;;;26.60;97.40;;;;;;5067346;28;20039;-52
2023/08/11 11:45:40;;;;;;;4.80;1.00;;;26.50;97.70;;;;;;5066958;28;20465;-55
2023/08/11 11:48:06;;;;;;;2.50;1.00;;;26.60;97.50;;;;;;5062504;28;20044;-53
2023/08/11 11:50:34;;;;;;;4.07;1.10;;;26.40;96.90;;;;;;5068817;28;20558;-52
2023/08/11 11:53:00;;;;;;;2.25;0.88;;;26.40;97.30;;;;;;5064953;28;20032;-52
2023/08/11 11:55:26;;;;;;;2.08;1.08;;;26.40;97.00;;;;;;5059887;28;20058;-57
2023/08/11 11:57:52;;;;;;;2.55;1.55;;;26.40;98.10;;;;;;5063014;28;20040;-52
2023/08/11 12:00:18;;;;;;;3.15;1.42;;;26.40;97.20;;;;;;5064959;28;20033;-56
2023/08/11 12:02:45;;;;;;;6.15;1.27;;;26.50;96.70;;;;;;5062784;28;20054;-52
2023/08/11 12:05:12;;;;;;;5.97;1.55;;;26.60;97.20;;;;;;5063549;28;20063;-55
2023/08/11 12:07:38;;;;;;;4.65;1.45;;;26.70;97.40;;;;;;5066022;28;20134;-56
2023/08/11 12:10:05;;;;;;;2.95;1.23;;;26.90;97.60;;;;;;5059984;28;20455;-56
2023/08/11 12:12:32;;;;;;;2.83;1.48;;;27.00;97.40;;;;;;5064899;28;20039;-52
2023/08/11 12:15:03;;;;;;;2.35;1.25;;;27.10;97.00;;;;;;5067251;28;20130;-52
2023/08/11 12:17:31;;;;;;;5.05;1.10;;;27.10;96.80;;;;;;5066859;28;20032;-52
2023/08/11 12:19:56;;;;;;;1.58;0.95;;;27.20;97.00;;;;;;5058626;28;20048;-55
2023/08/11 12:22:22;;;;;;;6.82;1.15;;;27.20;97.00;;;;;;5062443;28;20028;-54
2023/08/11 12:24:48;;;;;;;4.25;1.10;;;27.20;97.20;;;;;;5060713;28;20067;-54
2023/08/11 12:27:13;;;;;;;6.57;1.45;;;27.30;97.30;;;;;;5056751;28;20043;-54
2023/08/11 12:29:39;;;;;;;4.32;1.10;;;27.30;96.70;;;;;;5061841;28;20746;-53
2023/08/11 12:32:04;;;;;;;4.50;1.08;;;27.30;96.60;;;;;;5063429;28;20040;-54
2023/08/11 12:34:30;;;;;;;4.03;1.52;;;27.30;96.30;;;;;;5065283;28;20361;-53
2023/08/11 12:36:55;;;;;;;5.07;1.10;;;27.30;96.40;;;;;;5063799;28;20028;-51
2023/08/11 12:39:22;;;;;;;3.00;0.80;;;27.40;96.40;;;;;;5066671;28;20036;-53
2023/08/11 12:41:48;;;;;;;6.85;0.73;;;27.30;96.30;;;;;;5065617;28;20356;-52
2023/08/11 12:44:15;;;;;;;3.25;1.15;;;27.30;97.00;;;;;;5064403;28;20075;-52